Impacts METAR Board
IDs:

KRIL - Rifle/Garfield Cnty, CO, US

Updated at: 0100 UTC 06 Dec 2019
Potential Impact None Slight Moderate High
Time 05/13Z 05/14Z 05/15Z 05/16Z 05/17Z 05/18Z 05/19Z 05/20Z 05/21Z 05/22Z 05/23Z 06/00Z 06/01Z
Temp32 32 33 34 35 36 39 40 41 43 41 41 41
Dewpt30 30 31 32 32 33 34 35 34 35 34 33 33
Altim29.96 29.98 30.02 30.04 30.08 30.09 30.09 30.08 30.09 30.12 30.15 30.18 30.21
VIS0.25 0.5 6 10 10 9 10 10 10 10 10 10 10
CIG10 2 7 12 9 12 13 14 46 65 48 47 37
CoverOVCOVCOVCOVCOVCOVCOVCOVCOVCBKNOVCOVCOVC
FltCatLIFRLIFRIFRMVFRIFRMVFRMVFRMVFRVFRVFRVFRVFRVFR
WX-SN FG-SN FGBR-------------------RA
WDir0350160170110150500260200250230240
WSpd0 3 5 4 4 3 4 0 9 6 9 6 8
WGst-- -- -- -- -- -- -- -- 15 -- -- -- --
Raw hourly METARs
KRIL 051253Z AUTO 00000KT 1/4SM -SN FG BKN010 OVC021 00/M01 A2996 RMK AO2 SLP151 P0002 T00001011 $
KRIL 051353Z AUTO 35003KT 1/2SM -SN FG BKN002 BKN006 OVC009 00/M01 A2998 RMK AO2 SLP164 P0001 T00001011 $
KRIL 051500Z AUTO 16005KT 6SM BR OVC007 01/M01 A3002 RMK AO2 CIG 005V012 T00061006
KRIL 051553Z AUTO 17004KT 10SM BKN012 OVC070 01/00 A3004 RMK AO2 UPB06E09SNB09E20 SLP180 P0000 T00110000
KRIL 051705Z AUTO 11004KT 10SM OVC009 02/00 A3008 RMK AO2 T00170000
KRIL 051753Z AUTO 15003KT 9SM OVC012 02/01 A3009 RMK AO2 SLP199 60003 T00220006 10022 21006 53021
KRIL 051853Z AUTO 05004KT 10SM OVC013 04/01 A3009 RMK AO2 SLP193 T00390011
KRIL 051953Z AUTO 00000KT 10SM OVC014 04/02 A3008 RMK AO2 SLP190 T00440017
KRIL 052053Z AUTO 26009G15KT 10SM SCT017 OVC046 05/01 A3009 RMK AO2 SLP194 T00500011 53001
KRIL 052153Z AUTO 20006KT 10SM FEW026 SCT043 BKN065 06/02 A3012 RMK AO2 SLP198 T00610017
KRIL 052253Z AUTO 25009KT 10SM OVC048 05/01 A3015 RMK AO2 SLP213 T00500011
KRIL 052353Z AUTO 23006KT 10SM OVC047 05/01 A3018 RMK AO2 SLP222 T00500006 10067 20022 53025
KRIL 060053Z AUTO 24008KT 10SM -RA FEW026 OVC037 05/01 A3021 RMK AO2 RAB43 SLP232 P0000 T00500006



Page loaded:  01:06 UTC  |   05:06 PM Pacific  |   06:06 PM Mountain  |   07:06 PM Central  |   08:06 PM Eastern

 

ADVISORIES

FORECASTS

FORECASTS

OBSERVATIONS

USER TOOLS

ABOUT US